CANAVERAL EAST 120NM East of Cape Canaveral (41010)

Conditions for Monday

Daily
Weekly
Monthly
Marine Data Graph

Current Weather/Wave Observations

Air Temperature: 85° F
Humidity: 66
Wind direction (W Dir): East (85 - 94 Degrees)
Wind Speed (W Spd): 11.7 kts (13.4 mph)
Wind Gust (W Spd): 13.6 kts (15.7 mph)
Atmospheric Pressure (AP): 30.06 in

Updated: 7:20 PM EDT on August 19, 2019

Marine & Boating Location Search

Enter a coastal zip code for marine weather.

General Information

Location: 28.903 North -78.464 West
Buoy Type: 3-meter discus buoy
Buoy Hull: 3D26
Payload: ARES payload
Owned by: NDBC
Windspeed: Measured by obtained from anemometer
Sea Surface: Measured by Intake

Weather and Wave Data

Time Temp Humidity Wind Dominant Wave Wind Wave Wave Swell Pressure
  Air
(°F)
Water
(°F)
  Dir Speed
(kts)
Speed
(mph)
Period
(sec)
Height
(ft)
Range
(ft)
Period
(sec)
Height
(ft)
Range
(ft)
Period
(sec)
Height
(ft)
Range
(ft)
Atmo.
(in)
Tend.
(in)
20:00 86 86 58 East 3.9 4.5 - - - - - - 30.11 -0.01
20:20 86 86 59 East 3.9 4.5 - - - - - - 30.10 -
20:40 86 86 58 ESE 3.9 4.5 - - - - - - 30.10 -
20:50 86 86 59 SE 5.8 6.7 6 2.30 exactly 2.3 4 1.64 0.82 - 2.46 6 1.64 0.82 - 2.46 30.10 -
21:10 86 86 62 ESE 7.8 8.9 - - - - - - 30.09 -
21:20 86 87 63 ESE 7.8 8.9 - - - - - - 30.09 -
21:40 85 86 64 ESE 7.8 8.9 - - - - - - 30.10 -
22:30 86 87 60 ESE 3.9 4.5 - - - - - - 30.11 -
22:40 86 87 59 ESE 5.8 6.7 - - - - - - 30.11 -
22:50 85 87 67 SE 5.8 6.7 6 2.30 exactly 2.3 - - - 6 1.64 0.82 - 2.46 30.11 -
23:00 85 87 67 SE 5.8 6.7 - - - - - - 30.11 -
23:10 85 86 67 SE 3.9 4.5 - - - - - - 30.12 -
23:20 85 86 68 SE 5.8 6.7 - - - - - - 30.11 -
23:30 85 86 67 SE 5.8 6.7 - - - - - - 30.11 -
23:40 85 86 65 ESE 5.8 6.7 - - - - - - 30.11 -
23:50 85
-
66 ESE 7.8 8.9 - - - - - - 30.11 -
00:00 85 86 66 SE 7.8 8.9 - - - - - - 30.11 +0.02
00:10 85 86 67 ESE 7.8 8.9 - - - - - - 30.11 -
00:20 85 86 67 SE 7.8 8.9 - - - - - - 30.11 -
00:30 85 86 67 SE 7.8 8.9 - - - - - - 30.12 -
00:40 85 86 66 SE 5.8 6.7 - - - - - - 30.12 -
00:50 85 86 65 SE 5.8 6.7 7 2.30 exactly 2.3 - - - 7 1.64 0.82 - 2.46 30.11 -
01:00 85 86 65 SE 5.8 6.7 - - - - - - 30.12 -
01:10 85 86 65 SE 7.8 8.9 - - - - - - 30.12 -
01:20 85 86 66 SE 7.8 8.9 - - - - - - 30.11 -
01:40 85 86 66 SE 9.7 11.2 - - - - - - 30.10 -
01:50 85 86 65 ESE 9.7 11.2 7 1.97 exactly 2.0 5 1.64 0.82 - 2.46 7 1.64 0.82 - 2.46 30.10 -
02:30 84 86 69 SE 7.8 8.9 - - - - - - 30.09 -
02:40 84 86 70 SE 7.8 8.9 - - - - - - 30.09 -
03:00 84 86 71 SE 7.8 8.9 - - - - - - 30.09 -0.02
03:10 84 86 70 SE 7.8 8.9 - - - - - - 30.09 -
03:20 84 86 71 SE 7.8 8.9 - - - - - - 30.09 -
03:30 84 86 70 SE 7.8 8.9 - - - - - - 30.08 -
03:40 84 86 70 SE 5.8 6.7 - - - - - - 30.08 -
04:10 84 86 69 SE 5.8 6.7 - - - - - - 30.08 -
04:30 84 86 68 SSE 3.9 4.5 - - - - - - 30.08 -
04:40 84 86 69 SE 5.8 6.7 - - - - - - 30.08 -
05:10 84 86 67 SE 3.9 4.5 - - - - - -
-
-
05:20 84 86 67 SE 3.9 4.5 - - - - - - 30.08 -
05:40 84 86 67 SE 3.9 4.5 - - - - - - 30.08 -
05:50 84 86 66 SE 3.9 4.5 8 1.97 exactly 2.0 - - - 8 1.64 0.82 - 2.46 30.08 -
06:30 84 86 65 SE 3.9 4.5 - - - - - - 30.09 -
06:40 84 86 67 SE 3.9 4.5 - - - - - - 30.09 -
06:50 84 86 68 SE 5.8 6.7 8 1.97 exactly 2.0 - - - 8 1.64 0.82 - 2.46 30.10 -
07:30 84 86 69 SE 5.8 6.7 - - - - - - 30.12 -
07:50 85 86 67 SE 7.8 8.9 7 1.64 exactly 1.6 - - - 7 1.64 0.82 - 2.46 30.12 -
08:00 85 86 66 SE 7.8 8.9 - - - - - - 30.12 +0.04
08:10 85 86 67 ESE 7.8 8.9 - - - - - - 30.12 -
08:20 85 86 66 ESE 7.8 8.9 - - - - - - 30.12 -
08:30 85 86 65 ESE 7.8 8.9 - - - - - - 30.13 -
08:40 85 86 66 ESE 7.8 8.9 - - - - - - 30.12 -
08:50 85 86 67 ESE 7.8 8.9 8 1.64 exactly 1.6 - - - 8 1.64 0.82 - 2.46 30.13 -
09:00 85
-
68 East 7.8 8.9 - - - - - - 30.13 +0.05
09:10 85 86 67 ESE 7.8 8.9 - - - - - - 30.13 -
09:20 85 86 67 ESE 7.8 8.9 - - - - - - 30.13 -
09:30 85 86 67 ESE 7.8 8.9 - - - - - - 30.13 -
09:40 85 86 66 SE 7.8 8.9 - - - - - - 30.14 -
09:50 84 86 70 SSE 9.7 11.2 9 1.64 exactly 1.6 - - - 9 1.64 0.82 - 2.46 30.14 -
10:10 84 86 70 SSE 5.8 6.7 - - - - - - 30.14 -
10:20 85 86 68 SE 5.8 6.7 - - - - - - 30.14 -
10:40 85 86 66 ESE 5.8 6.7 - - - - - - 30.14 -
10:50 85 86 66 ESE 7.8 8.9 8 1.64 exactly 1.6 - - - 8 1.64 0.82 - 2.46 30.15 -
11:00 85 86 65 ESE 5.8 6.7 - - - - - - 30.15 +0.03
11:10 85 86 65 ESE 7.8 8.9 - - - - - - 30.15 -
11:20 85 86 65 ESE 5.8 6.7 - - - - - - 30.15 -
11:40 85 86 65 ESE 5.8 6.7 - - - - - - 30.16 -
11:50 85 86 65 ESE 5.8 6.7 8 1.64 exactly 1.6 - - - 8 1.64 0.82 - 2.46 30.16 -
12:10 85 87 66 East 7.8 8.9 - - - - - - 30.15 -
12:20 85 87 67 East 7.8 8.9 - - - - - - 30.15 -
12:30 85 87 67 ESE 7.8 8.9 - - - - - - 30.15 -
12:40 85 87 65 East 7.8 8.9 - - - - - - 30.14 -
12:50 85 87 65 ESE 7.8 8.9 8 1.64 exactly 1.6 - - - 8 1.64 0.82 - 2.46 30.14 -
13:10 85 87 49 ENE 7.8 8.9 - - - - - - 30.14 -
13:20 85 87 57 East 5.8 6.7 - - - - - - 30.14 -
13:30 85 87 62 East 5.8 6.7 - - - - - - 30.14 -
13:40 85 87 65 East 9.7 11.2 - - - - - - 30.14 -
13:50 85 87 61 East 9.7 11.2 - - - - - - 30.14 -
14:00 85 87 65 East 7.8 8.9 - - - - - - 30.13 -0.02
14:10 85 87 65 East 9.7 11.2 - - - - - - 30.13 -
14:30 85 87 63 East 7.8 8.9 - - - - - - 30.11 -
14:40 85 87 63 East 7.8 8.9 - - - - - - 30.11 -
14:50 85 87 63 East 5.8 6.7 - - - - - - 30.11 -
15:00 85 87 62 East 5.8 6.7 - - - - - - 30.10 -0.05
15:10 85 87 60 East 5.8 6.7 - - - - - - 30.10 -
15:20 85 87 59 East 5.8 6.7 - - - - - - 30.10 -
15:50 85 87 62 East 5.8 6.7 8 1.64 exactly 1.6 3 1.64 0.82 - 2.46 8 1.64 0.82 - 2.46 30.09 -
16:00 85 87 64 East 5.8 6.7 - - - - - - 30.09 -0.05
16:10 85 87 65 East 7.8 8.9 - - - - - - 30.09 -
16:30 85 87 64 East 7.8 8.9 - - - - - - 30.09 -
16:40 85 87 64 East 7.8 8.9 - - - - - - 30.08 -
16:50 85 87 64 East 7.8 8.9 8 1.97 exactly 2.0 3 1.64 0.82 - 2.46 8 1.64 0.82 - 2.46 30.09 -
17:10 85 87 65 East 7.8 8.9 - - - - - - 30.08 -
17:40 85 87 66 East 7.8 8.9 - - - - - - 30.07 -
17:50 85 87 65 East 7.8 8.9 8 1.64 exactly 1.6 3 1.64 0.82 - 2.46 8 1.64 0.82 - 2.46 30.07 -
18:00 85
-
67 East 7.8 8.9 - - - - - - 30.06 -0.04
18:10 85 87 67 East 7.8 8.9 - - - - - - 30.06 -
18:40 85 87 66 East 9.7 11.2 - - - - - - 30.06 -
18:50 85 87 66 East 9.7 11.2 8 1.97 exactly 2.0 3 1.64 0.82 - 2.46 8 1.64 0.82 - 2.46 30.06 -
19:00 85 87 68 East 11.7 13.4 - - - - - - 30.06 -0.03
19:20 85 87 66 East 11.7 13.4 - - - - - - 30.06 -

Detailed Wave Spectra

Time Water Depth Wave Height Spectral Peak Period Average Wave Period Sampling Interval Wave Record
21:00 2920 ft 2.43 ft 6.3 sec 5.7 sec 0.6 sec 2400 sec
22:00 2920 ft 2.26 ft 6.7 sec 5.8 sec 0.6 sec 2400 sec
02:00 2920 ft 2.10 ft 7.1 sec 5.3 sec 0.6 sec 2400 sec
04:00 2920 ft 2.00 ft 7.7 sec 5.6 sec 0.6 sec 2400 sec
05:00 2920 ft 1.90 ft 6.7 sec 5.3 sec 0.6 sec 2400 sec
06:00 2920 ft 2.00 ft 7.7 sec 5.8 sec 0.6 sec 2400 sec
07:00 2920 ft 1.94 ft 7.7 sec 6.0 sec 0.6 sec 2400 sec
10:00 2920 ft 1.64 ft 9.1 sec 5.4 sec 0.6 sec 2400 sec
13:00 2920 ft 1.61 ft 7.7 sec 4.9 sec 0.6 sec 2400 sec